sensor_id;sensor_type;location;lat;lon;timestamp;P1;durP1;ratioP1;P2;durP2;ratioP2
15595;SDS011;7898;48.658;9.068;2023-12-07T00:00:47;19.13;;;11.23;;
15595;SDS011;7898;48.658;9.068;2023-12-07T00:03:14;19.93;;;11.23;;
15595;SDS011;7898;48.658;9.068;2023-12-07T00:05:41;17.63;;;10.70;;
15595;SDS011;7898;48.658;9.068;2023-12-07T00:08:10;15.57;;;8.73;;
15595;SDS011;7898;48.658;9.068;2023-12-07T00:10:37;14.70;;;9.70;;
15595;SDS011;7898;48.658;9.068;2023-12-07T00:13:04;13.33;;;8.73;;
15595;SDS011;7898;48.658;9.068;2023-12-07T00:15:31;13.43;;;8.73;;
15595;SDS011;7898;48.658;9.068;2023-12-07T00:17:58;14.63;;;9.67;;
15595;SDS011;7898;48.658;9.068;2023-12-07T00:20:28;18.70;;;10.10;;
15595;SDS011;7898;48.658;9.068;2023-12-07T00:22:55;15.03;;;9.20;;
15595;SDS011;7898;48.658;9.068;2023-12-07T00:25:23;13.67;;;8.47;;
15595;SDS011;7898;48.658;9.068;2023-12-07T00:27:50;12.43;;;8.63;;
15595;SDS011;7898;48.658;9.068;2023-12-07T00:30:17;12.03;;;8.03;;
15595;SDS011;7898;48.658;9.068;2023-12-07T00:32:44;15.50;;;9.17;;
15595;SDS011;7898;48.658;9.068;2023-12-07T00:35:11;15.83;;;9.60;;
15595;SDS011;7898;48.658;9.068;2023-12-07T00:37:39;12.07;;;8.53;;
15595;SDS011;7898;48.658;9.068;2023-12-07T00:40:06;15.00;;;9.17;;
15595;SDS011;7898;48.658;9.068;2023-12-07T00:42:35;12.57;;;8.87;;
15595;SDS011;7898;48.658;9.068;2023-12-07T00:45:03;23.53;;;13.43;;
15595;SDS011;7898;48.658;9.068;2023-12-07T00:47:30;25.03;;;13.47;;
15595;SDS011;7898;48.658;9.068;2023-12-07T00:49:57;16.03;;;9.47;;
15595;SDS011;7898;48.658;9.068;2023-12-07T00:52:24;17.27;;;9.87;;
15595;SDS011;7898;48.658;9.068;2023-12-07T00:54:51;17.43;;;9.10;;
15595;SDS011;7898;48.658;9.068;2023-12-07T00:57:18;16.10;;;9.77;;
15595;SDS011;7898;48.658;9.068;2023-12-07T00:59:46;18.53;;;9.73;;
15595;SDS011;7898;48.658;9.068;2023-12-07T01:02:13;19.00;;;10.10;;
15595;SDS011;7898;48.658;9.068;2023-12-07T01:04:40;15.70;;;9.20;;
15595;SDS011;7898;48.658;9.068;2023-12-07T01:07:06;15.50;;;9.70;;
15595;SDS011;7898;48.658;9.068;2023-12-07T01:09:33;17.73;;;9.07;;
15595;SDS011;7898;48.658;9.068;2023-12-07T01:12:01;12.30;;;9.07;;
15595;SDS011;7898;48.658;9.068;2023-12-07T01:14:28;14.30;;;8.40;;
15595;SDS011;7898;48.658;9.068;2023-12-07T01:16:56;12.20;;;7.83;;
15595;SDS011;7898;48.658;9.068;2023-12-07T01:19:23;12.40;;;7.77;;
15595;SDS011;7898;48.658;9.068;2023-12-07T01:21:50;12.50;;;8.40;;
15595;SDS011;7898;48.658;9.068;2023-12-07T01:24:17;15.47;;;7.63;;
15595;SDS011;7898;48.658;9.068;2023-12-07T01:26:44;13.43;;;8.17;;
15595;SDS011;7898;48.658;9.068;2023-12-07T01:29:10;16.47;;;8.80;;
15595;SDS011;7898;48.658;9.068;2023-12-07T01:31:39;16.67;;;10.07;;
15595;SDS011;7898;48.658;9.068;2023-12-07T01:34:07;15.80;;;8.90;;
15595;SDS011;7898;48.658;9.068;2023-12-07T01:36:34;15.17;;;8.67;;
15595;SDS011;7898;48.658;9.068;2023-12-07T01:39:04;16.00;;;8.83;;
15595;SDS011;7898;48.658;9.068;2023-12-07T01:41:31;11.43;;;7.93;;
15595;SDS011;7898;48.658;9.068;2023-12-07T01:43:58;13.30;;;7.53;;
15595;SDS011;7898;48.658;9.068;2023-12-07T01:46:25;16.80;;;14.63;;
15595;SDS011;7898;48.658;9.068;2023-12-07T01:48:52;14.43;;;10.10;;
15595;SDS011;7898;48.658;9.068;2023-12-07T01:51:20;14.00;;;8.90;;
15595;SDS011;7898;48.658;9.068;2023-12-07T01:53:47;13.03;;;8.10;;
15595;SDS011;7898;48.658;9.068;2023-12-07T01:56:15;11.87;;;8.07;;
15595;SDS011;7898;48.658;9.068;2023-12-07T01:58:42;11.43;;;7.17;;
15595;SDS011;7898;48.658;9.068;2023-12-07T02:01:09;11.13;;;7.83;;
15595;SDS011;7898;48.658;9.068;2023-12-07T02:03:38;10.40;;;6.60;;
15595;SDS011;7898;48.658;9.068;2023-12-07T02:06:06;11.70;;;7.70;;
15595;SDS011;7898;48.658;9.068;2023-12-07T02:08:35;10.00;;;6.90;;
15595;SDS011;7898;48.658;9.068;2023-12-07T02:11:06;11.27;;;7.90;;
15595;SDS011;7898;48.658;9.068;2023-12-07T02:13:34;9.60;;;6.63;;
15595;SDS011;7898;48.658;9.068;2023-12-07T02:16:02;13.93;;;7.17;;
15595;SDS011;7898;48.658;9.068;2023-12-07T02:18:35;12.67;;;7.13;;
15595;SDS011;7898;48.658;9.068;2023-12-07T02:21:08;10.67;;;7.13;;
15595;SDS011;7898;48.658;9.068;2023-12-07T02:23:41;10.40;;;7.00;;
15595;SDS011;7898;48.658;9.068;2023-12-07T02:26:08;11.13;;;7.23;;
15595;SDS011;7898;48.658;9.068;2023-12-07T02:28:39;11.73;;;7.87;;
15595;SDS011;7898;48.658;9.068;2023-12-07T02:31:05;11.87;;;7.57;;
15595;SDS011;7898;48.658;9.068;2023-12-07T02:33:33;11.87;;;7.30;;
15595;SDS011;7898;48.658;9.068;2023-12-07T02:36:00;11.73;;;7.57;;
15595;SDS011;7898;48.658;9.068;2023-12-07T02:38:27;11.63;;;7.47;;
15595;SDS011;7898;48.658;9.068;2023-12-07T02:40:55;11.47;;;7.87;;
15595;SDS011;7898;48.658;9.068;2023-12-07T02:43:23;11.63;;;8.10;;
15595;SDS011;7898;48.658;9.068;2023-12-07T02:45:51;12.03;;;8.17;;
15595;SDS011;7898;48.658;9.068;2023-12-07T02:48:20;10.70;;;7.73;;
15595;SDS011;7898;48.658;9.068;2023-12-07T02:50:46;12.83;;;7.83;;
15595;SDS011;7898;48.658;9.068;2023-12-07T02:53:13;12.17;;;8.60;;
15595;SDS011;7898;48.658;9.068;2023-12-07T02:55:40;11.10;;;8.00;;
15595;SDS011;7898;48.658;9.068;2023-12-07T02:58:07;13.13;;;7.83;;
15595;SDS011;7898;48.658;9.068;2023-12-07T03:00:34;14.13;;;8.53;;
15595;SDS011;7898;48.658;9.068;2023-12-07T03:03:02;14.63;;;8.00;;
15595;SDS011;7898;48.658;9.068;2023-12-07T03:05:29;13.53;;;8.23;;
15595;SDS011;7898;48.658;9.068;2023-12-07T03:07:56;13.70;;;8.30;;
15595;SDS011;7898;48.658;9.068;2023-12-07T03:10:22;13.63;;;9.13;;
15595;SDS011;7898;48.658;9.068;2023-12-07T03:12:49;15.63;;;8.57;;
15595;SDS011;7898;48.658;9.068;2023-12-07T03:15:16;11.53;;;7.77;;
15595;SDS011;7898;48.658;9.068;2023-12-07T03:17:43;13.30;;;7.97;;
15595;SDS011;7898;48.658;9.068;2023-12-07T03:20:12;14.83;;;8.67;;
15595;SDS011;7898;48.658;9.068;2023-12-07T03:22:39;14.20;;;8.57;;
15595;SDS011;7898;48.658;9.068;2023-12-07T03:25:06;15.87;;;9.77;;
15595;SDS011;7898;48.658;9.068;2023-12-07T03:27:33;12.97;;;8.67;;
15595;SDS011;7898;48.658;9.068;2023-12-07T03:29:59;12.17;;;8.13;;
15595;SDS011;7898;48.658;9.068;2023-12-07T03:32:26;13.47;;;8.80;;
15595;SDS011;7898;48.658;9.068;2023-12-07T03:34:52;13.40;;;8.57;;
15595;SDS011;7898;48.658;9.068;2023-12-07T03:37:21;17.00;;;9.13;;
15595;SDS011;7898;48.658;9.068;2023-12-07T03:39:48;13.90;;;9.03;;
15595;SDS011;7898;48.658;9.068;2023-12-07T03:42:14;15.57;;;9.30;;
15595;SDS011;7898;48.658;9.068;2023-12-07T03:44:41;14.27;;;8.83;;
15595;SDS011;7898;48.658;9.068;2023-12-07T03:47:09;11.77;;;8.10;;
15595;SDS011;7898;48.658;9.068;2023-12-07T03:49:35;12.93;;;7.93;;
15595;SDS011;7898;48.658;9.068;2023-12-07T03:52:04;12.80;;;7.90;;
15595;SDS011;7898;48.658;9.068;2023-12-07T03:54:32;13.23;;;7.80;;
15595;SDS011;7898;48.658;9.068;2023-12-07T03:57:00;11.87;;;7.67;;
15595;SDS011;7898;48.658;9.068;2023-12-07T03:59:27;12.60;;;7.53;;
15595;SDS011;7898;48.658;9.068;2023-12-07T04:01:53;12.63;;;7.97;;
15595;SDS011;7898;48.658;9.068;2023-12-07T04:04:20;17.70;;;8.17;;
15595;SDS011;7898;48.658;9.068;2023-12-07T04:06:47;12.50;;;8.07;;
15595;SDS011;7898;48.658;9.068;2023-12-07T04:09:14;12.93;;;8.50;;
15595;SDS011;7898;48.658;9.068;2023-12-07T04:11:42;11.50;;;7.57;;
15595;SDS011;7898;48.658;9.068;2023-12-07T04:14:11;13.97;;;7.87;;
15595;SDS011;7898;48.658;9.068;2023-12-07T04:16:38;12.17;;;7.90;;
15595;SDS011;7898;48.658;9.068;2023-12-07T04:19:04;11.37;;;7.53;;
15595;SDS011;7898;48.658;9.068;2023-12-07T04:21:31;12.63;;;7.40;;
15595;SDS011;7898;48.658;9.068;2023-12-07T04:23:58;11.97;;;8.10;;
15595;SDS011;7898;48.658;9.068;2023-12-07T04:26:25;10.93;;;7.30;;
15595;SDS011;7898;48.658;9.068;2023-12-07T04:28:53;12.07;;;7.53;;
15595;SDS011;7898;48.658;9.068;2023-12-07T04:31:20;12.50;;;8.30;;
15595;SDS011;7898;48.658;9.068;2023-12-07T04:33:47;13.33;;;8.03;;
15595;SDS011;7898;48.658;9.068;2023-12-07T04:36:14;11.03;;;7.77;;
15595;SDS011;7898;48.658;9.068;2023-12-07T04:38:41;14.27;;;8.63;;
15595;SDS011;7898;48.658;9.068;2023-12-07T04:41:07;13.03;;;7.67;;
15595;SDS011;7898;48.658;9.068;2023-12-07T04:43:34;13.30;;;8.03;;
15595;SDS011;7898;48.658;9.068;2023-12-07T04:46:03;16.00;;;8.40;;
15595;SDS011;7898;48.658;9.068;2023-12-07T04:48:30;13.53;;;8.13;;
15595;SDS011;7898;48.658;9.068;2023-12-07T04:50:57;12.73;;;8.03;;
15595;SDS011;7898;48.658;9.068;2023-12-07T04:53:24;13.40;;;8.27;;
15595;SDS011;7898;48.658;9.068;2023-12-07T04:55:51;13.53;;;7.57;;
15595;SDS011;7898;48.658;9.068;2023-12-07T04:58:17;13.30;;;7.93;;
15595;SDS011;7898;48.658;9.068;2023-12-07T05:00:44;13.80;;;7.73;;
15595;SDS011;7898;48.658;9.068;2023-12-07T05:03:13;14.67;;;7.43;;
15595;SDS011;7898;48.658;9.068;2023-12-07T05:05:39;13.00;;;7.67;;
15595;SDS011;7898;48.658;9.068;2023-12-07T05:08:06;13.37;;;7.43;;
15595;SDS011;7898;48.658;9.068;2023-12-07T05:10:33;13.17;;;7.73;;
15595;SDS011;7898;48.658;9.068;2023-12-07T05:13:00;11.03;;;7.57;;
15595;SDS011;7898;48.658;9.068;2023-12-07T05:15:27;12.17;;;8.40;;
15595;SDS011;7898;48.658;9.068;2023-12-07T05:17:54;10.53;;;7.73;;
15595;SDS011;7898;48.658;9.068;2023-12-07T05:20:22;12.93;;;7.40;;
15595;SDS011;7898;48.658;9.068;2023-12-07T05:22:51;11.97;;;7.80;;
15595;SDS011;7898;48.658;9.068;2023-12-07T05:25:18;9.60;;;6.80;;
15595;SDS011;7898;48.658;9.068;2023-12-07T05:27:45;11.43;;;7.40;;
15595;SDS011;7898;48.658;9.068;2023-12-07T05:30:12;13.20;;;7.83;;
15595;SDS011;7898;48.658;9.068;2023-12-07T05:32:40;12.70;;;7.97;;
15595;SDS011;7898;48.658;9.068;2023-12-07T05:35:08;14.47;;;7.30;;
15595;SDS011;7898;48.658;9.068;2023-12-07T05:37:36;13.83;;;7.53;;
15595;SDS011;7898;48.658;9.068;2023-12-07T05:40:03;9.73;;;6.93;;
15595;SDS011;7898;48.658;9.068;2023-12-07T05:42:31;11.10;;;7.27;;
15595;SDS011;7898;48.658;9.068;2023-12-07T05:44:58;10.93;;;6.93;;
15595;SDS011;7898;48.658;9.068;2023-12-07T05:47:25;10.40;;;6.73;;
15595;SDS011;7898;48.658;9.068;2023-12-07T05:49:52;10.07;;;6.53;;
15595;SDS011;7898;48.658;9.068;2023-12-07T05:52:19;9.67;;;6.43;;
15595;SDS011;7898;48.658;9.068;2023-12-07T05:54:47;11.63;;;7.17;;
15595;SDS011;7898;48.658;9.068;2023-12-07T05:57:14;10.13;;;7.30;;
15595;SDS011;7898;48.658;9.068;2023-12-07T05:59:41;12.93;;;7.07;;
15595;SDS011;7898;48.658;9.068;2023-12-07T06:02:08;11.33;;;7.97;;
15595;SDS011;7898;48.658;9.068;2023-12-07T06:04:35;11.10;;;6.80;;
15595;SDS011;7898;48.658;9.068;2023-12-07T06:07:03;12.63;;;7.60;;
15595;SDS011;7898;48.658;9.068;2023-12-07T06:09:29;15.50;;;7.60;;
15595;SDS011;7898;48.658;9.068;2023-12-07T06:11:58;11.80;;;6.90;;
15595;SDS011;7898;48.658;9.068;2023-12-07T06:14:25;11.57;;;7.23;;
15595;SDS011;7898;48.658;9.068;2023-12-07T06:16:51;11.10;;;7.27;;
15595;SDS011;7898;48.658;9.068;2023-12-07T06:19:18;11.83;;;6.90;;
15595;SDS011;7898;48.658;9.068;2023-12-07T06:21:46;11.57;;;6.57;;
15595;SDS011;7898;48.658;9.068;2023-12-07T06:24:13;10.47;;;6.87;;
15595;SDS011;7898;48.658;9.068;2023-12-07T06:26:40;11.77;;;7.13;;
15595;SDS011;7898;48.658;9.068;2023-12-07T06:29:08;12.17;;;7.47;;
15595;SDS011;7898;48.658;9.068;2023-12-07T06:31:35;13.93;;;7.73;;
15595;SDS011;7898;48.658;9.068;2023-12-07T06:34:01;11.03;;;7.50;;
15595;SDS011;7898;48.658;9.068;2023-12-07T06:36:28;11.87;;;7.50;;
15595;SDS011;7898;48.658;9.068;2023-12-07T06:38:55;15.43;;;9.33;;
15595;SDS011;7898;48.658;9.068;2023-12-07T06:41:23;13.07;;;8.87;;
15595;SDS011;7898;48.658;9.068;2023-12-07T06:43:50;18.10;;;10.03;;
15595;SDS011;7898;48.658;9.068;2023-12-07T06:46:18;83.80;;;50.27;;
15595;SDS011;7898;48.658;9.068;2023-12-07T06:48:45;61.27;;;37.47;;
15595;SDS011;7898;48.658;9.068;2023-12-07T06:51:12;21.60;;;13.07;;
15595;SDS011;7898;48.658;9.068;2023-12-07T06:53:39;17.37;;;9.93;;
15595;SDS011;7898;48.658;9.068;2023-12-07T06:56:07;14.67;;;8.77;;
15595;SDS011;7898;48.658;9.068;2023-12-07T06:58:34;17.67;;;10.80;;
15595;SDS011;7898;48.658;9.068;2023-12-07T07:01:01;19.50;;;11.13;;
15595;SDS011;7898;48.658;9.068;2023-12-07T07:03:29;18.63;;;11.83;;
15595;SDS011;7898;48.658;9.068;2023-12-07T07:05:56;17.70;;;10.80;;
15595;SDS011;7898;48.658;9.068;2023-12-07T07:08:24;14.40;;;9.00;;
15595;SDS011;7898;48.658;9.068;2023-12-07T07:10:51;14.77;;;9.03;;
15595;SDS011;7898;48.658;9.068;2023-12-07T07:13:18;14.97;;;9.23;;
15595;SDS011;7898;48.658;9.068;2023-12-07T07:15:45;12.53;;;8.37;;
15595;SDS011;7898;48.658;9.068;2023-12-07T07:18:13;16.27;;;8.90;;
15595;SDS011;7898;48.658;9.068;2023-12-07T07:20:41;16.47;;;8.80;;
15595;SDS011;7898;48.658;9.068;2023-12-07T07:23:09;12.83;;;8.03;;
15595;SDS011;7898;48.658;9.068;2023-12-07T07:25:37;19.70;;;8.67;;
15595;SDS011;7898;48.658;9.068;2023-12-07T07:28:04;17.47;;;9.77;;
15595;SDS011;7898;48.658;9.068;2023-12-07T07:30:32;17.63;;;9.67;;
15595;SDS011;7898;48.658;9.068;2023-12-07T07:32:59;14.23;;;8.77;;
15595;SDS011;7898;48.658;9.068;2023-12-07T07:35:27;14.10;;;9.33;;
15595;SDS011;7898;48.658;9.068;2023-12-07T07:37:55;19.33;;;10.40;;
15595;SDS011;7898;48.658;9.068;2023-12-07T07:40:22;19.70;;;12.17;;
15595;SDS011;7898;48.658;9.068;2023-12-07T07:42:49;17.43;;;12.13;;
15595;SDS011;7898;48.658;9.068;2023-12-07T07:45:16;15.13;;;9.30;;
15595;SDS011;7898;48.658;9.068;2023-12-07T07:47:44;18.13;;;10.60;;
15595;SDS011;7898;48.658;9.068;2023-12-07T07:50:10;14.20;;;9.77;;
15595;SDS011;7898;48.658;9.068;2023-12-07T07:52:37;13.25;;;10.23;;
15595;SDS011;7898;48.658;9.068;2023-12-07T07:55:07;11.37;;;8.73;;
15595;SDS011;7898;48.658;9.068;2023-12-07T07:57:34;12.90;;;9.13;;
15595;SDS011;7898;48.658;9.068;2023-12-07T08:00:01;13.10;;;9.10;;
15595;SDS011;7898;48.658;9.068;2023-12-07T08:02:30;15.67;;;8.37;;
15595;SDS011;7898;48.658;9.068;2023-12-07T08:04:57;11.57;;;8.47;;
15595;SDS011;7898;48.658;9.068;2023-12-07T08:07:24;13.63;;;9.53;;
15595;SDS011;7898;48.658;9.068;2023-12-07T08:09:51;17.37;;;10.33;;
15595;SDS011;7898;48.658;9.068;2023-12-07T08:12:19;15.97;;;10.73;;
15595;SDS011;7898;48.658;9.068;2023-12-07T08:14:48;13.40;;;10.83;;
15595;SDS011;7898;48.658;9.068;2023-12-07T08:17:15;13.43;;;9.37;;
15595;SDS011;7898;48.658;9.068;2023-12-07T08:19:42;12.13;;;9.07;;
15595;SDS011;7898;48.658;9.068;2023-12-07T08:22:09;14.33;;;10.87;;
15595;SDS011;7898;48.658;9.068;2023-12-07T08:24:38;15.77;;;11.63;;
15595;SDS011;7898;48.658;9.068;2023-12-07T08:27:05;19.13;;;12.20;;
15595;SDS011;7898;48.658;9.068;2023-12-07T08:29:33;14.73;;;11.13;;
15595;SDS011;7898;48.658;9.068;2023-12-07T08:32:00;15.97;;;11.07;;
15595;SDS011;7898;48.658;9.068;2023-12-07T08:34:27;15.20;;;11.43;;
15595;SDS011;7898;48.658;9.068;2023-12-07T08:36:54;17.02;;;12.02;;
15595;SDS011;7898;48.658;9.068;2023-12-07T08:39:21;15.95;;;11.55;;
15595;SDS011;7898;48.658;9.068;2023-12-07T08:41:49;13.65;;;10.88;;
15595;SDS011;7898;48.658;9.068;2023-12-07T08:44:16;19.98;;;15.68;;
15595;SDS011;7898;48.658;9.068;2023-12-07T08:46:45;26.90;;;17.73;;
15595;SDS011;7898;48.658;9.068;2023-12-07T08:49:12;21.08;;;16.98;;
15595;SDS011;7898;48.658;9.068;2023-12-07T08:51:40;16.17;;;14.15;;
15595;SDS011;7898;48.658;9.068;2023-12-07T08:54:07;14.07;;;12.48;;
15595;SDS011;7898;48.658;9.068;2023-12-07T08:56:33;13.32;;;11.05;;
15595;SDS011;7898;48.658;9.068;2023-12-07T08:59:00;14.00;;;11.27;;
15595;SDS011;7898;48.658;9.068;2023-12-07T09:01:28;13.35;;;10.98;;
15595;SDS011;7898;48.658;9.068;2023-12-07T09:03:59;11.90;;;9.90;;
15595;SDS011;7898;48.658;9.068;2023-12-07T09:06:26;12.90;;;10.45;;
15595;SDS011;7898;48.658;9.068;2023-12-07T09:08:53;14.13;;;11.07;;
15595;SDS011;7898;48.658;9.068;2023-12-07T09:11:21;13.55;;;10.50;;
15595;SDS011;7898;48.658;9.068;2023-12-07T09:13:48;12.52;;;10.80;;
15595;SDS011;7898;48.658;9.068;2023-12-07T09:16:15;13.95;;;12.10;;
15595;SDS011;7898;48.658;9.068;2023-12-07T09:18:42;15.10;;;12.43;;
15595;SDS011;7898;48.658;9.068;2023-12-07T09:21:11;15.32;;;12.15;;
15595;SDS011;7898;48.658;9.068;2023-12-07T09:23:38;13.95;;;11.35;;
15595;SDS011;7898;48.658;9.068;2023-12-07T09:26:05;15.35;;;11.02;;
15595;SDS011;7898;48.658;9.068;2023-12-07T09:28:33;12.95;;;10.88;;
15595;SDS011;7898;48.658;9.068;2023-12-07T09:31:00;13.82;;;11.23;;
15595;SDS011;7898;48.658;9.068;2023-12-07T09:33:27;13.25;;;10.95;;
15595;SDS011;7898;48.658;9.068;2023-12-07T09:35:53;12.95;;;10.15;;
15595;SDS011;7898;48.658;9.068;2023-12-07T09:38:22;11.45;;;9.40;;
15595;SDS011;7898;48.658;9.068;2023-12-07T09:40:52;14.15;;;10.60;;
15595;SDS011;7898;48.658;9.068;2023-12-07T09:43:20;15.40;;;12.23;;
15595;SDS011;7898;48.658;9.068;2023-12-07T09:45:47;13.30;;;11.45;;
15595;SDS011;7898;48.658;9.068;2023-12-07T09:48:15;10.95;;;9.50;;
15595;SDS011;7898;48.658;9.068;2023-12-07T09:50:43;11.13;;;9.27;;
15595;SDS011;7898;48.658;9.068;2023-12-07T09:53:10;12.43;;;8.52;;
15595;SDS011;7898;48.658;9.068;2023-12-07T09:55:39;9.60;;;7.97;;
15595;SDS011;7898;48.658;9.068;2023-12-07T09:58:06;9.18;;;8.15;;
15595;SDS011;7898;48.658;9.068;2023-12-07T10:00:33;11.00;;;9.10;;
15595;SDS011;7898;48.658;9.068;2023-12-07T10:03:00;11.90;;;8.68;;
15595;SDS011;7898;48.658;9.068;2023-12-07T10:05:27;8.77;;;7.88;;
15595;SDS011;7898;48.658;9.068;2023-12-07T10:07:54;10.57;;;8.05;;
15595;SDS011;7898;48.658;9.068;2023-12-07T10:10:21;10.93;;;7.97;;
15595;SDS011;7898;48.658;9.068;2023-12-07T10:12:52;8.90;;;7.38;;
15595;SDS011;7898;48.658;9.068;2023-12-07T10:15:20;9.48;;;7.20;;
15595;SDS011;7898;48.658;9.068;2023-12-07T10:17:49;7.72;;;6.90;;
15595;SDS011;7898;48.658;9.068;2023-12-07T10:20:17;10.00;;;7.60;;
15595;SDS011;7898;48.658;9.068;2023-12-07T10:22:45;9.38;;;7.22;;
15595;SDS011;7898;48.658;9.068;2023-12-07T10:25:12;8.57;;;7.53;;
15595;SDS011;7898;48.658;9.068;2023-12-07T10:27:40;8.45;;;7.20;;
15595;SDS011;7898;48.658;9.068;2023-12-07T10:30:10;9.77;;;7.10;;
15595;SDS011;7898;48.658;9.068;2023-12-07T10:32:37;10.70;;;7.63;;
15595;SDS011;7898;48.658;9.068;2023-12-07T10:35:08;8.97;;;7.00;;
15595;SDS011;7898;48.658;9.068;2023-12-07T10:37:36;13.25;;;7.18;;
15595;SDS011;7898;48.658;9.068;2023-12-07T10:40:04;9.47;;;6.83;;
15595;SDS011;7898;48.658;9.068;2023-12-07T10:42:32;6.90;;;6.20;;
15595;SDS011;7898;48.658;9.068;2023-12-07T10:45:03;8.17;;;5.93;;
15595;SDS011;7898;48.658;9.068;2023-12-07T10:47:34;6.43;;;5.57;;
15595;SDS011;7898;48.658;9.068;2023-12-07T10:50:05;6.67;;;4.87;;
15595;SDS011;7898;48.658;9.068;2023-12-07T10:52:36;6.77;;;5.20;;
15595;SDS011;7898;48.658;9.068;2023-12-07T10:55:07;6.93;;;5.33;;
15595;SDS011;7898;48.658;9.068;2023-12-07T10:57:37;7.33;;;5.33;;
15595;SDS011;7898;48.658;9.068;2023-12-07T11:00:05;9.07;;;4.77;;
15595;SDS011;7898;48.658;9.068;2023-12-07T11:02:35;10.80;;;4.80;;
15595;SDS011;7898;48.658;9.068;2023-12-07T11:05:04;7.60;;;4.50;;
15595;SDS011;7898;48.658;9.068;2023-12-07T11:07:38;5.03;;;4.00;;
15595;SDS011;7898;48.658;9.068;2023-12-07T11:10:17;5.63;;;4.47;;
15595;SDS011;7898;48.658;9.068;2023-12-07T11:12:53;6.40;;;3.83;;
15595;SDS011;7898;48.658;9.068;2023-12-07T11:15:26;3.87;;;3.27;;
15595;SDS011;7898;48.658;9.068;2023-12-07T11:17:55;5.83;;;4.50;;
15595;SDS011;7898;48.658;9.068;2023-12-07T11:20:31;5.30;;;4.10;;
15595;SDS011;7898;48.658;9.068;2023-12-07T11:22:59;7.00;;;4.30;;
15595;SDS011;7898;48.658;9.068;2023-12-07T11:25:26;5.10;;;3.90;;
15595;SDS011;7898;48.658;9.068;2023-12-07T11:27:59;5.63;;;3.57;;
15595;SDS011;7898;48.658;9.068;2023-12-07T11:30:27;8.10;;;3.70;;
15595;SDS011;7898;48.658;9.068;2023-12-07T11:32:55;4.07;;;3.10;;
15595;SDS011;7898;48.658;9.068;2023-12-07T11:35:22;4.97;;;3.50;;
15595;SDS011;7898;48.658;9.068;2023-12-07T11:38:07;6.27;;;3.97;;
15595;SDS011;7898;48.658;9.068;2023-12-07T11:40:37;4.53;;;3.40;;
15595;SDS011;7898;48.658;9.068;2023-12-07T11:43:06;4.17;;;3.10;;
15595;SDS011;7898;48.658;9.068;2023-12-07T11:45:37;4.43;;;3.10;;
15595;SDS011;7898;48.658;9.068;2023-12-07T11:48:13;5.83;;;3.23;;
15595;SDS011;7898;48.658;9.068;2023-12-07T11:50:56;3.90;;;3.13;;
15595;SDS011;7898;48.658;9.068;2023-12-07T11:53:24;5.53;;;3.40;;
15595;SDS011;7898;48.658;9.068;2023-12-07T11:55:52;4.77;;;3.03;;
15595;SDS011;7898;48.658;9.068;2023-12-07T11:58:19;5.33;;;3.07;;
15595;SDS011;7898;48.658;9.068;2023-12-07T12:00:46;3.57;;;2.80;;
15595;SDS011;7898;48.658;9.068;2023-12-07T12:03:15;4.00;;;2.20;;
15595;SDS011;7898;48.658;9.068;2023-12-07T12:05:42;2.83;;;2.30;;
15595;SDS011;7898;48.658;9.068;2023-12-07T12:08:09;4.07;;;2.00;;
15595;SDS011;7898;48.658;9.068;2023-12-07T12:10:36;3.47;;;2.50;;
15595;SDS011;7898;48.658;9.068;2023-12-07T12:13:04;5.60;;;3.90;;
15595;SDS011;7898;48.658;9.068;2023-12-07T12:15:31;4.43;;;3.13;;
15595;SDS011;7898;48.658;9.068;2023-12-07T12:17:59;4.07;;;2.77;;
15595;SDS011;7898;48.658;9.068;2023-12-07T12:20:27;3.57;;;2.87;;
15595;SDS011;7898;48.658;9.068;2023-12-07T12:22:54;5.37;;;3.10;;
15595;SDS011;7898;48.658;9.068;2023-12-07T12:25:22;5.23;;;3.20;;
15595;SDS011;7898;48.658;9.068;2023-12-07T12:27:51;3.87;;;3.03;;
15595;SDS011;7898;48.658;9.068;2023-12-07T12:30:19;5.57;;;3.33;;
15595;SDS011;7898;48.658;9.068;2023-12-07T12:32:47;3.37;;;2.27;;
15595;SDS011;7898;48.658;9.068;2023-12-07T12:35:15;3.47;;;2.73;;
15595;SDS011;7898;48.658;9.068;2023-12-07T12:37:44;5.60;;;3.77;;
15595;SDS011;7898;48.658;9.068;2023-12-07T12:40:12;3.97;;;3.20;;
15595;SDS011;7898;48.658;9.068;2023-12-07T12:42:43;5.70;;;3.97;;
15595;SDS011;7898;48.658;9.068;2023-12-07T12:45:11;4.57;;;3.30;;
15595;SDS011;7898;48.658;9.068;2023-12-07T12:47:39;7.97;;;2.77;;
15595;SDS011;7898;48.658;9.068;2023-12-07T12:50:07;3.47;;;2.77;;
15595;SDS011;7898;48.658;9.068;2023-12-07T12:52:34;5.83;;;2.70;;
15595;SDS011;7898;48.658;9.068;2023-12-07T12:55:06;5.50;;;2.93;;
15595;SDS011;7898;48.658;9.068;2023-12-07T12:57:35;5.80;;;3.47;;
15595;SDS011;7898;48.658;9.068;2023-12-07T13:00:03;4.13;;;3.07;;
15595;SDS011;7898;48.658;9.068;2023-12-07T13:02:32;3.37;;;2.10;;
15595;SDS011;7898;48.658;9.068;2023-12-07T13:04:59;4.43;;;2.77;;
15595;SDS011;7898;48.658;9.068;2023-12-07T13:07:25;5.30;;;3.07;;
15595;SDS011;7898;48.658;9.068;2023-12-07T13:09:52;8.43;;;4.13;;
15595;SDS011;7898;48.658;9.068;2023-12-07T13:12:21;3.73;;;2.07;;
15595;SDS011;7898;48.658;9.068;2023-12-07T13:14:48;5.37;;;3.17;;
15595;SDS011;7898;48.658;9.068;2023-12-07T13:17:15;5.30;;;3.23;;
15595;SDS011;7898;48.658;9.068;2023-12-07T13:19:42;4.10;;;2.10;;
15595;SDS011;7898;48.658;9.068;2023-12-07T13:22:12;4.53;;;2.60;;
15595;SDS011;7898;48.658;9.068;2023-12-07T13:24:39;2.93;;;2.63;;
15595;SDS011;7898;48.658;9.068;2023-12-07T13:27:06;3.10;;;2.10;;
15595;SDS011;7898;48.658;9.068;2023-12-07T13:29:34;4.10;;;2.67;;
15595;SDS011;7898;48.658;9.068;2023-12-07T13:32:01;4.07;;;2.40;;
15595;SDS011;7898;48.658;9.068;2023-12-07T13:34:28;3.87;;;1.27;;
15595;SDS011;7898;48.658;9.068;2023-12-07T13:36:55;4.07;;;2.37;;
15595;SDS011;7898;48.658;9.068;2023-12-07T13:39:22;5.03;;;2.93;;
15595;SDS011;7898;48.658;9.068;2023-12-07T13:41:52;4.47;;;2.43;;
15595;SDS011;7898;48.658;9.068;2023-12-07T13:44:20;3.27;;;2.47;;
15595;SDS011;7898;48.658;9.068;2023-12-07T13:46:50;4.10;;;2.30;;
15595;SDS011;7898;48.658;9.068;2023-12-07T13:49:18;5.87;;;2.37;;
15595;SDS011;7898;48.658;9.068;2023-12-07T13:51:45;4.53;;;2.30;;
15595;SDS011;7898;48.658;9.068;2023-12-07T13:54:12;2.43;;;2.07;;
15595;SDS011;7898;48.658;9.068;2023-12-07T13:56:39;3.00;;;2.40;;
15595;SDS011;7898;48.658;9.068;2023-12-07T13:59:06;4.27;;;3.10;;
15595;SDS011;7898;48.658;9.068;2023-12-07T14:01:35;4.10;;;2.30;;
15595;SDS011;7898;48.658;9.068;2023-12-07T14:04:06;3.97;;;2.83;;
15595;SDS011;7898;48.658;9.068;2023-12-07T14:06:33;3.30;;;2.50;;
15595;SDS011;7898;48.658;9.068;2023-12-07T14:09:00;3.07;;;2.40;;
15595;SDS011;7898;48.658;9.068;2023-12-07T14:11:27;3.23;;;2.50;;
15595;SDS011;7898;48.658;9.068;2023-12-07T14:13:54;3.43;;;2.10;;
15595;SDS011;7898;48.658;9.068;2023-12-07T14:16:21;3.10;;;2.20;;
15595;SDS011;7898;48.658;9.068;2023-12-07T14:18:48;2.93;;;2.43;;
15595;SDS011;7898;48.658;9.068;2023-12-07T14:21:19;3.43;;;2.30;;
15595;SDS011;7898;48.658;9.068;2023-12-07T14:23:47;3.63;;;2.33;;
15595;SDS011;7898;48.658;9.068;2023-12-07T14:26:13;2.83;;;2.30;;
15595;SDS011;7898;48.658;9.068;2023-12-07T14:28:40;3.00;;;2.30;;
15595;SDS011;7898;48.658;9.068;2023-12-07T14:31:07;4.03;;;2.50;;
15595;SDS011;7898;48.658;9.068;2023-12-07T14:33:39;3.13;;;2.63;;
15595;SDS011;7898;48.658;9.068;2023-12-07T14:36:07;4.53;;;2.67;;
15595;SDS011;7898;48.658;9.068;2023-12-07T14:38:37;3.83;;;2.70;;
15595;SDS011;7898;48.658;9.068;2023-12-07T14:41:04;2.90;;;2.37;;
15595;SDS011;7898;48.658;9.068;2023-12-07T14:43:32;4.60;;;2.10;;
15595;SDS011;7898;48.658;9.068;2023-12-07T14:45:59;2.90;;;2.40;;
15595;SDS011;7898;48.658;9.068;2023-12-07T14:48:27;4.73;;;2.30;;
15595;SDS011;7898;48.658;9.068;2023-12-07T14:50:54;2.83;;;1.90;;
15595;SDS011;7898;48.658;9.068;2023-12-07T14:53:21;4.00;;;2.40;;